createdAt,value
2017-07-19T00:00:47.367Z,85.40
2017-07-19T00:01:47.946Z,86.02
2017-07-19T00:02:48.522Z,85.35
2017-07-19T00:03:49.100Z,85.50
2017-07-19T00:04:49.676Z,86.46
2017-07-19T00:05:50.256Z,87.04
2017-07-19T00:06:50.834Z,85.78
2017-07-19T00:07:51.412Z,86.46
2017-07-19T00:08:51.991Z,85.83
2017-07-19T00:09:52.570Z,85.83
2017-07-19T00:10:53.147Z,85.78
2017-07-19T00:11:53.737Z,86.85
2017-07-19T00:12:54.314Z,86.94
2017-07-19T00:13:54.891Z,86.46
2017-07-19T00:14:55.470Z,87.62
2017-07-19T00:15:56.047Z,87.04
2017-07-19T00:16:56.627Z,86.27
2017-07-19T00:17:57.204Z,87.33
2017-07-19T00:18:57.783Z,87.62
2017-07-19T00:19:58.358Z,87.52
2017-07-19T00:20:58.936Z,88.00
2017-07-19T00:21:59.513Z,88.19
2017-07-19T00:23:00.091Z,87.33
2017-07-19T00:24:00.668Z,87.33
2017-07-19T00:25:01.244Z,87.33
2017-07-19T00:26:01.820Z,86.75
2017-07-19T00:27:02.397Z,87.33
2017-07-19T00:28:02.974Z,86.46
2017-07-19T00:29:03.551Z,87.52
2017-07-19T00:30:04.128Z,87.42
2017-07-19T00:31:04.703Z,87.71
2017-07-19T00:32:05.280Z,87.62
2017-07-19T00:33:05.858Z,87.52
2017-07-19T00:34:06.436Z,87.81
2017-07-19T00:35:07.013Z,87.81
2017-07-19T00:36:07.588Z,88.34
2017-07-19T00:37:08.166Z,88.34
2017-07-19T00:38:08.741Z,88.39
2017-07-19T00:39:09.325Z,88.44
2017-07-19T00:40:09.894Z,88.24
2017-07-19T00:41:10.471Z,89.50
2017-07-19T00:42:11.047Z,88.63
2017-07-19T00:43:11.625Z,89.50
2017-07-19T00:44:12.201Z,89.83
2017-07-19T00:45:12.778Z,89.88
2017-07-19T00:46:13.355Z,89.50
2017-07-19T00:47:13.932Z,89.69
2017-07-19T00:48:14.510Z,88.53
2017-07-19T00:49:15.089Z,89.78
2017-07-19T00:50:15.666Z,88.63
2017-07-19T00:51:16.246Z,89.78
2017-07-19T00:52:16.824Z,89.50
2017-07-19T00:53:17.400Z,89.50
2017-07-19T00:54:17.978Z,90.07
2017-07-19T00:55:18.554Z,90.07
2017-07-19T00:56:19.131Z,89.69
2017-07-19T00:57:19.708Z,90.75
2017-07-19T00:58:20.287Z,89.54
2017-07-19T00:59:20.864Z,90.51
2017-07-19T01:00:21.440Z,90.84
2017-07-19T01:01:22.017Z,89.88
2017-07-19T01:02:22.594Z,89.69
2017-07-19T01:03:23.171Z,90.17
2017-07-19T01:04:23.747Z,89.01
2017-07-19T01:05:24.324Z,89.69
2017-07-19T01:06:24.901Z,89.45
2017-07-19T01:07:25.478Z,89.93
2017-07-19T01:08:26.054Z,91.47
2017-07-19T01:09:26.632Z,90.12
2017-07-19T01:10:27.210Z,90.55
2017-07-19T01:11:27.788Z,89.83
2017-07-19T01:12:28.364Z,91.52
2017-07-19T01:13:28.944Z,91.42
2017-07-19T01:14:29.520Z,92.77
2017-07-19T01:15:30.102Z,91.81
2017-07-19T01:16:30.677Z,91.75
2017-07-19T01:17:31.255Z,92.05
2017-07-19T01:18:31.831Z,90.89
2017-07-19T01:19:32.407Z,91.08
2017-07-19T01:20:32.984Z,90.94
2017-07-19T01:21:33.559Z,92.67
2017-07-19T01:22:34.136Z,91.75
2017-07-19T01:23:34.714Z,91.85
2017-07-19T01:24:35.289Z,91.23
2017-07-19T01:25:35.865Z,92.96
2017-07-19T01:26:36.441Z,92.77
2017-07-19T01:27:37.018Z,94.26
2017-07-19T01:28:37.593Z,93.92
2017-07-19T01:29:38.170Z,93.82
2017-07-19T01:30:38.746Z,92.91
2017-07-19T01:31:39.323Z,91.37
2017-07-19T01:32:39.899Z,91.08
2017-07-19T01:33:40.476Z,91.56
2017-07-19T01:34:41.057Z,91.75
2017-07-19T01:35:41.628Z,93.05
2017-07-19T01:36:42.208Z,93.10
2017-07-19T01:37:42.781Z,94.40
2017-07-19T01:38:43.357Z,92.38
2017-07-19T01:39:43.933Z,93.92
2017-07-19T01:40:44.509Z,92.91
2017-07-19T01:41:45.085Z,91.66
2017-07-19T01:42:45.662Z,92.77
2017-07-19T01:43:46.239Z,92.86
2017-07-19T01:44:46.816Z,92.24
2017-07-19T01:45:47.393Z,92.81
2017-07-19T01:46:47.971Z,92.38
2017-07-19T01:47:48.549Z,92.86
2017-07-19T01:48:49.134Z,91.28
2017-07-19T01:49:49.712Z,92.52
2017-07-19T01:50:50.288Z,91.85
2017-07-19T01:51:50.865Z,91.37
2017-07-19T01:52:51.441Z,91.47
2017-07-19T01:53:52.017Z,90.89
2017-07-19T01:54:52.594Z,91.61
2017-07-19T01:55:53.182Z,92.77
2017-07-19T01:56:53.755Z,92.86
2017-07-19T01:57:54.334Z,94.26
2017-07-19T01:58:54.908Z,93.63
2017-07-19T01:59:55.487Z,92.96
2017-07-19T02:00:56.061Z,91.47
2017-07-19T02:01:56.639Z,91.08
2017-07-19T02:02:57.214Z,90.22
2017-07-19T02:03:57.791Z,90.89
2017-07-19T02:04:58.366Z,91.71
2017-07-19T02:05:58.943Z,91.90
2017-07-19T02:06:59.518Z,93.92
2017-07-19T02:08:00.094Z,93.82
2017-07-19T02:09:00.668Z,92.96
2017-07-19T02:10:01.255Z,92.86
2017-07-19T02:11:01.836Z,92.24
2017-07-19T02:12:02.425Z,92.00
2017-07-19T02:13:02.999Z,92.48
2017-07-19T02:14:03.575Z,92.19
2017-07-19T02:15:04.149Z,91.52
2017-07-19T02:16:04.726Z,90.89
2017-07-19T02:17:05.301Z,90.70
2017-07-19T02:18:05.878Z,91.61
2017-07-19T02:19:06.453Z,91.18
2017-07-19T02:20:07.029Z,90.89
2017-07-19T02:21:07.604Z,90.89
2017-07-19T02:22:08.179Z,91.71
2017-07-19T02:23:08.754Z,92.57
2017-07-19T02:24:09.330Z,93.39
2017-07-19T02:25:09.905Z,94.16
2017-07-19T02:26:10.480Z,94.35
2017-07-19T02:27:11.057Z,94.35
2017-07-19T02:28:11.632Z,94.83
2017-07-19T02:29:12.208Z,94.11
2017-07-19T02:30:12.784Z,93.44
2017-07-19T02:31:13.361Z,93.54
2017-07-19T02:32:13.937Z,94.01
2017-07-19T02:33:14.513Z,94.74
2017-07-19T02:34:15.089Z,95.31
2017-07-19T02:35:15.679Z,95.79
2017-07-19T02:36:16.258Z,95.89
2017-07-19T02:37:16.833Z,95.89
2017-07-19T02:38:17.411Z,95.70
2017-07-19T02:39:17.988Z,93.92
2017-07-19T02:40:18.563Z,92.77
2017-07-19T02:41:19.138Z,92.96
2017-07-19T02:42:19.715Z,92.86
2017-07-19T02:43:20.290Z,93.34
2017-07-19T02:44:20.877Z,93.77
2017-07-19T02:45:21.465Z,94.83
2017-07-19T02:46:22.032Z,94.49
2017-07-19T02:47:22.609Z,93.54
2017-07-19T02:48:23.184Z,93.54
2017-07-19T02:49:23.760Z,94.01
2017-07-19T02:50:24.347Z,94.26
2017-07-19T02:51:24.926Z,94.54
2017-07-19T02:52:25.505Z,95.41
2017-07-19T02:53:26.073Z,94.21
2017-07-19T02:54:26.660Z,93.82
2017-07-19T02:55:27.234Z,94.35
2017-07-19T02:56:27.812Z,95.70
2017-07-19T02:57:28.398Z,96.70
2017-07-19T02:58:28.973Z,95.89
2017-07-19T02:59:29.549Z,95.60
2017-07-19T03:00:30.124Z,95.84
2017-07-19T03:01:30.699Z,96.75
2017-07-19T03:02:31.274Z,97.09
2017-07-19T03:03:31.850Z,98.05
2017-07-19T03:04:32.424Z,98.67
2017-07-19T03:05:33.000Z,98.86
2017-07-19T03:06:33.574Z,98.43
2017-07-19T03:07:34.150Z,97.42
2017-07-19T03:08:34.723Z,96.08
2017-07-19T03:09:35.300Z,97.28
2017-07-19T03:10:35.875Z,98.43
2017-07-19T03:11:36.451Z,95.98
2017-07-19T03:12:37.027Z,96.75
2017-07-19T03:13:37.601Z,95.98
2017-07-19T03:14:38.176Z,94.69
2017-07-19T03:15:38.764Z,94.88
2017-07-19T03:16:39.341Z,96.27
2017-07-19T03:17:39.920Z,96.94
2017-07-19T03:18:40.496Z,95.89
2017-07-19T03:19:41.070Z,95.36
2017-07-19T03:20:41.662Z,94.74
2017-07-19T03:21:42.235Z,96.27
2017-07-19T03:22:42.811Z,96.85
2017-07-19T03:23:43.396Z,97.14
2017-07-19T03:24:43.976Z,95.41
2017-07-19T03:25:44.550Z,96.08
2017-07-19T03:26:45.127Z,94.78
2017-07-19T03:27:45.702Z,94.11
2017-07-19T03:28:46.276Z,94.74
2017-07-19T03:29:46.864Z,94.49
2017-07-19T03:30:47.541Z,94.54
2017-07-19T03:31:48.130Z,95.70
2017-07-19T03:32:48.707Z,96.56
2017-07-19T03:33:49.283Z,96.66
2017-07-19T03:34:49.859Z,96.08
2017-07-19T03:35:50.435Z,96.27
2017-07-19T03:36:51.013Z,97.71
2017-07-19T03:37:51.589Z,97.61
2017-07-19T03:38:52.166Z,97.24
2017-07-19T03:39:52.744Z,96.85
2017-07-19T03:40:53.321Z,95.98
2017-07-19T03:41:53.901Z,95.79
2017-07-19T03:42:54.490Z,97.86
2017-07-19T03:43:55.067Z,98.77
2017-07-19T03:44:55.646Z,96.47
2017-07-19T03:45:56.223Z,95.31
2017-07-19T03:46:56.800Z,96.70
2017-07-19T03:47:57.377Z,95.60
2017-07-19T03:48:57.954Z,95.21
2017-07-19T03:49:58.531Z,95.60
2017-07-19T03:50:59.108Z,95.89
2017-07-19T03:51:59.698Z,95.98
2017-07-19T03:53:00.286Z,95.89
2017-07-19T03:54:00.863Z,95.21
2017-07-19T03:55:01.441Z,95.31
2017-07-19T03:56:02.019Z,96.85
2017-07-19T03:57:02.596Z,97.56
2017-07-19T03:58:03.174Z,96.56
2017-07-19T03:59:03.759Z,95.98
2017-07-19T04:00:04.337Z,97.33
2017-07-19T04:01:04.915Z,98.05
2017-07-19T04:02:05.493Z,96.94
2017-07-19T04:03:06.081Z,95.79
2017-07-19T04:04:06.659Z,97.86
2017-07-19T04:05:07.238Z,99.29
2017-07-19T04:06:07.814Z,97.66
2017-07-19T04:07:08.392Z,97.71
2017-07-19T04:08:08.969Z,97.52
2017-07-19T04:09:09.549Z,96.94
2017-07-19T04:10:10.126Z,96.03
2017-07-19T04:11:10.704Z,96.08
2017-07-19T04:12:11.280Z,94.88
2017-07-19T04:13:11.857Z,94.01
2017-07-19T04:14:12.436Z,94.31
2017-07-19T04:15:13.014Z,93.63
2017-07-19T04:16:13.594Z,93.05
2017-07-19T04:17:14.187Z,92.96
2017-07-19T04:18:14.764Z,93.54
2017-07-19T04:19:15.352Z,94.40
2017-07-19T04:20:15.943Z,93.82
2017-07-19T04:21:16.520Z,92.05
2017-07-19T04:22:17.099Z,92.72
2017-07-19T04:23:17.676Z,92.72
2017-07-19T04:24:18.256Z,93.68
2017-07-19T04:25:18.845Z,93.01
2017-07-19T04:26:19.422Z,94.01
2017-07-19T04:27:19.998Z,96.08
2017-07-19T04:28:20.577Z,96.13
2017-07-19T04:29:21.155Z,94.98
2017-07-19T04:30:21.742Z,95.50
2017-07-19T04:31:22.319Z,96.56
2017-07-19T04:32:22.894Z,96.13
2017-07-19T04:33:23.473Z,95.65
2017-07-19T04:34:24.054Z,96.22
2017-07-19T04:35:24.642Z,95.07
2017-07-19T04:36:25.218Z,94.69
2017-07-19T04:37:25.797Z,94.78
2017-07-19T04:38:26.376Z,94.73
2017-07-19T04:39:26.954Z,93.39
2017-07-19T04:40:27.534Z,92.43
2017-07-19T04:41:28.124Z,93.19
2017-07-19T04:42:28.706Z,93.39
2017-07-19T04:43:29.296Z,93.49
2017-07-19T04:44:29.878Z,93.73
2017-07-19T04:45:30.456Z,92.86
2017-07-19T04:46:31.034Z,92.57
2017-07-19T04:47:31.614Z,91.90
2017-07-19T04:48:32.192Z,91.80
2017-07-19T04:49:32.772Z,91.99
2017-07-19T04:50:33.352Z,93.15
2017-07-19T04:51:33.934Z,94.45
2017-07-19T04:52:34.514Z,93.63
2017-07-19T04:53:35.093Z,91.99
2017-07-19T04:54:35.680Z,92.09
2017-07-19T04:55:36.253Z,92.09
2017-07-19T04:56:36.834Z,90.79
2017-07-19T04:57:37.414Z,91.61
2017-07-19T04:58:37.993Z,93.19
2017-07-19T04:59:38.574Z,92.67
2017-07-19T05:00:39.154Z,90.79
2017-07-19T05:01:39.736Z,90.12
2017-07-19T05:02:40.316Z,90.79
2017-07-19T05:03:40.908Z,89.54
2017-07-19T05:04:41.488Z,90.89
2017-07-19T05:05:42.067Z,90.02
2017-07-19T05:06:42.648Z,89.10
2017-07-19T05:07:43.229Z,88.67
2017-07-19T05:08:43.821Z,89.10
2017-07-19T05:09:44.398Z,88.14
2017-07-19T05:10:44.982Z,88.33
2017-07-19T05:11:45.560Z,89.64
2017-07-19T05:12:46.139Z,89.06
2017-07-19T05:13:46.719Z,90.21
2017-07-19T05:14:47.299Z,90.31
2017-07-19T05:15:47.880Z,89.73
2017-07-19T05:16:48.460Z,88.39
2017-07-19T05:17:49.040Z,89.06
2017-07-19T05:18:49.618Z,88.33
2017-07-19T05:19:50.198Z,88.81
2017-07-19T05:20:50.779Z,89.20
2017-07-19T05:21:51.358Z,88.33
2017-07-19T05:22:51.939Z,88.62
2017-07-19T05:23:52.519Z,88.24
2017-07-19T05:24:53.099Z,87.85
2017-07-19T05:25:53.679Z,88.53
2017-07-19T05:26:54.259Z,88.62
2017-07-19T05:27:54.840Z,87.66
2017-07-19T05:28:55.420Z,87.85
2017-07-19T05:29:55.999Z,88.04
2017-07-19T05:30:56.580Z,87.70
2017-07-19T05:31:57.160Z,87.66
2017-07-19T05:32:57.745Z,86.99
2017-07-19T05:33:58.335Z,87.56
2017-07-19T05:34:58.913Z,87.76
2017-07-19T05:35:59.494Z,87.66
2017-07-19T05:37:00.072Z,87.70
2017-07-19T05:38:00.663Z,87.90
2017-07-19T05:39:01.244Z,87.60
2017-07-19T05:40:01.826Z,87.22
2017-07-19T05:41:02.403Z,86.45
2017-07-19T05:42:02.994Z,86.83
2017-07-19T05:43:03.574Z,86.65
2017-07-19T05:44:04.154Z,87.03
2017-07-19T05:45:04.733Z,87.70
2017-07-19T05:46:05.312Z,88.18
2017-07-19T05:47:05.894Z,88.13
2017-07-19T05:48:06.475Z,88.38
2017-07-19T05:49:07.055Z,87.80
2017-07-19T05:50:07.646Z,88.57
2017-07-19T05:51:08.226Z,88.71
2017-07-19T05:52:08.807Z,87.94
2017-07-19T05:53:09.391Z,87.84
2017-07-19T05:54:09.978Z,87.46
2017-07-19T05:55:10.560Z,88.13
2017-07-19T05:56:11.138Z,88.42
2017-07-19T05:57:11.719Z,87.65
2017-07-19T05:58:12.300Z,87.84
2017-07-19T05:59:12.880Z,87.84
2017-07-19T06:00:13.462Z,85.91
2017-07-19T06:01:14.041Z,86.15
2017-07-19T06:02:14.622Z,86.63
2017-07-19T06:03:15.202Z,85.86
2017-07-19T06:04:15.782Z,84.90
2017-07-19T06:05:16.364Z,85.67
2017-07-19T06:06:16.945Z,85.38
2017-07-19T06:07:17.525Z,85.67
2017-07-19T06:08:18.119Z,85.28
2017-07-19T06:09:18.700Z,85.09
2017-07-19T06:10:19.294Z,85.09
2017-07-19T06:11:19.874Z,84.52
2017-07-19T06:12:20.454Z,84.22
2017-07-19T06:13:21.035Z,84.32
2017-07-19T06:14:21.617Z,83.88
2017-07-19T06:15:22.199Z,83.98
2017-07-19T06:16:22.781Z,84.27
2017-07-19T06:17:23.374Z,84.65
2017-07-19T06:18:23.954Z,82.43
2017-07-19T06:19:24.539Z,83.88
2017-07-19T06:20:25.116Z,83.01
2017-07-19T06:21:25.696Z,82.62
2017-07-19T06:22:26.281Z,82.86
2017-07-19T06:23:26.859Z,83.40
2017-07-19T06:24:27.442Z,83.30
2017-07-19T06:25:28.022Z,82.34
2017-07-19T06:26:28.602Z,82.18
2017-07-19T06:27:29.186Z,82.14
2017-07-19T06:28:29.766Z,82.18
2017-07-19T06:29:30.349Z,81.70
2017-07-19T06:30:30.929Z,81.41
2017-07-19T06:31:31.508Z,82.38
2017-07-19T06:32:32.089Z,81.45
2017-07-19T06:33:32.671Z,81.16
2017-07-19T06:34:33.252Z,80.97
2017-07-19T06:35:33.833Z,81.55
2017-07-19T06:36:34.414Z,81.74
2017-07-19T06:37:34.995Z,80.87
2017-07-19T06:38:35.577Z,81.07
2017-07-19T06:39:36.160Z,80.39
2017-07-19T06:40:36.739Z,79.56
2017-07-19T06:41:37.321Z,79.37
2017-07-19T06:42:37.901Z,78.59
2017-07-19T06:43:38.479Z,78.66
2017-07-19T06:44:39.061Z,78.94
2017-07-19T06:45:39.641Z,78.89
2017-07-19T06:46:40.222Z,78.31
2017-07-19T06:47:40.804Z,78.79
2017-07-19T06:48:41.384Z,78.31
2017-07-19T06:49:41.965Z,78.64
2017-07-19T06:50:42.546Z,78.73
2017-07-19T06:51:43.127Z,77.86
2017-07-19T06:52:43.707Z,77.86
2017-07-19T06:53:44.289Z,77.19
2017-07-19T06:54:44.870Z,77.38
2017-07-19T06:55:45.452Z,76.80
2017-07-19T06:56:46.033Z,76.61
2017-07-19T06:57:46.613Z,76.61
2017-07-19T06:58:47.196Z,76.90
2017-07-19T06:59:47.777Z,76.16
2017-07-19T07:00:48.359Z,75.20
2017-07-19T07:01:48.939Z,76.16
2017-07-19T07:02:49.520Z,76.26
2017-07-19T07:03:50.100Z,76.74
2017-07-19T07:04:50.681Z,75.58
2017-07-19T07:05:51.264Z,77.13
2017-07-19T07:06:51.856Z,75.43
2017-07-19T07:07:52.438Z,75.33
2017-07-19T07:08:53.020Z,74.90
2017-07-19T07:09:53.600Z,75.62
2017-07-19T07:10:54.182Z,75.33
2017-07-19T07:11:54.762Z,73.88
2017-07-19T07:12:55.342Z,74.55
2017-07-19T07:13:55.938Z,75.46
2017-07-19T07:14:56.517Z,74.01
2017-07-19T07:15:57.097Z,73.72
2017-07-19T07:16:57.679Z,72.95
2017-07-19T07:17:58.271Z,73.82
2017-07-19T07:18:58.865Z,73.82
2017-07-19T07:19:59.447Z,72.95
2017-07-19T07:21:00.039Z,73.75
2017-07-19T07:22:00.621Z,72.98
2017-07-19T07:23:01.202Z,73.57
2017-07-19T07:24:01.784Z,73.18
2017-07-19T07:25:02.364Z,72.21
2017-07-19T07:26:02.947Z,72.50
2017-07-19T07:27:03.541Z,72.89
2017-07-19T07:28:04.123Z,73.18
2017-07-19T07:29:04.707Z,72.40
2017-07-19T07:30:05.291Z,72.40
2017-07-19T07:31:05.873Z,71.62
2017-07-19T07:32:06.453Z,72.30
2017-07-19T07:33:07.035Z,71.72
2017-07-19T07:34:07.620Z,70.89
2017-07-19T07:35:08.202Z,72.05
2017-07-19T07:36:08.785Z,70.70
2017-07-19T07:37:09.367Z,71.28
2017-07-19T07:38:09.950Z,70.79
2017-07-19T07:39:10.532Z,70.44
2017-07-19T07:40:11.117Z,70.54
2017-07-19T07:41:11.698Z,70.34
2017-07-19T07:42:12.280Z,70.15
2017-07-19T07:43:12.862Z,70.25
2017-07-19T07:44:13.443Z,70.25
2017-07-19T07:45:14.025Z,70.31
2017-07-19T07:46:14.610Z,69.92
2017-07-19T07:47:15.192Z,70.25
2017-07-19T07:48:15.775Z,70.25
2017-07-19T07:49:16.357Z,70.25
2017-07-19T07:50:16.937Z,70.05
2017-07-19T07:51:17.522Z,69.67
2017-07-19T07:52:18.103Z,69.37
2017-07-19T07:53:18.689Z,68.92
2017-07-19T07:54:19.269Z,70.25
2017-07-19T07:55:19.851Z,69.08
2017-07-19T07:56:20.435Z,68.50
2017-07-19T07:57:21.022Z,69.70
2017-07-19T07:58:21.602Z,69.70
2017-07-19T07:59:22.185Z,69.02
2017-07-19T08:00:22.769Z,68.54
2017-07-19T08:01:23.349Z,69.89
2017-07-19T08:02:23.933Z,69.21
2017-07-19T08:03:24.516Z,69.21
2017-07-19T08:04:25.098Z,68.92
2017-07-19T08:05:25.681Z,68.63
2017-07-19T08:06:26.265Z,68.82
2017-07-19T08:07:26.844Z,69.24
2017-07-19T08:08:27.427Z,67.40
2017-07-19T08:09:28.010Z,68.89
2017-07-19T08:10:28.594Z,68.89
2017-07-19T08:11:29.176Z,68.02
2017-07-19T08:12:29.759Z,66.44
2017-07-19T08:13:30.352Z,66.92
2017-07-19T08:14:30.933Z,67.14
2017-07-19T08:15:31.516Z,66.37
2017-07-19T08:16:32.100Z,66.63
2017-07-19T08:17:32.682Z,66.95
2017-07-19T08:18:33.268Z,67.05
2017-07-19T08:19:33.852Z,66.76
2017-07-19T08:20:34.432Z,67.34
2017-07-19T08:21:35.014Z,66.99
2017-07-19T08:22:35.595Z,66.99
2017-07-19T08:23:36.179Z,66.40
2017-07-19T08:24:36.763Z,65.79
2017-07-19T08:25:37.346Z,65.82
2017-07-19T08:26:37.928Z,65.92
2017-07-19T08:27:38.510Z,65.62
2017-07-19T08:28:39.092Z,65.85
2017-07-19T08:29:39.676Z,65.08
2017-07-19T08:30:40.269Z,64.75
2017-07-19T08:31:40.860Z,65.85
2017-07-19T08:32:41.437Z,65.66
2017-07-19T08:33:42.021Z,63.84
2017-07-19T08:34:42.616Z,64.62
2017-07-19T08:35:43.199Z,64.91
2017-07-19T08:36:43.783Z,63.65
2017-07-19T08:37:44.366Z,64.33
2017-07-19T08:38:44.948Z,64.81
2017-07-19T08:39:45.531Z,64.62
2017-07-19T08:40:46.113Z,65.50
2017-07-19T08:41:46.699Z,64.81
2017-07-19T08:42:47.282Z,64.30
2017-07-19T08:43:47.881Z,64.81
2017-07-19T08:44:48.449Z,64.01
2017-07-19T08:45:49.033Z,63.81
2017-07-19T08:46:49.616Z,64.62
2017-07-19T08:47:50.200Z,64.43
2017-07-19T08:48:50.795Z,64.33
2017-07-19T08:49:51.379Z,65.11
2017-07-19T08:50:51.964Z,64.30
2017-07-19T08:51:52.548Z,65.27
2017-07-19T08:52:53.133Z,63.62
2017-07-19T08:53:53.716Z,64.20
2017-07-19T08:54:54.300Z,65.17
2017-07-19T08:55:54.886Z,65.33
2017-07-19T08:56:55.479Z,65.27
2017-07-19T08:57:56.064Z,64.78
2017-07-19T08:58:56.649Z,64.98
2017-07-19T08:59:57.232Z,65.08
2017-07-19T09:00:57.818Z,65.56
2017-07-19T09:01:58.399Z,65.20
2017-07-19T09:02:58.998Z,64.91
2017-07-19T09:03:59.566Z,63.84
2017-07-19T09:05:00.156Z,63.55
2017-07-19T09:06:00.735Z,64.53
2017-07-19T09:07:01.319Z,65.20
2017-07-19T09:08:01.900Z,64.78
2017-07-19T09:09:02.483Z,65.08
2017-07-19T09:10:03.081Z,65.30
2017-07-19T09:11:03.673Z,65.50
2017-07-19T09:12:04.256Z,65.40
2017-07-19T09:13:04.844Z,65.01
2017-07-19T09:14:05.424Z,64.23
2017-07-19T09:15:06.017Z,64.33
2017-07-19T09:16:06.600Z,64.81
2017-07-19T09:17:07.182Z,63.94
2017-07-19T09:18:07.766Z,64.85
2017-07-19T09:19:08.355Z,63.29
2017-07-19T09:20:08.934Z,64.53
2017-07-19T09:21:09.520Z,64.91
2017-07-19T09:22:10.103Z,65.11
2017-07-19T09:23:10.687Z,65.30
2017-07-19T09:24:11.271Z,65.01
2017-07-19T09:25:11.855Z,64.59
2017-07-19T09:26:12.450Z,65.85
2017-07-19T09:27:13.035Z,65.79
2017-07-19T09:28:13.623Z,65.23
2017-07-19T09:29:14.216Z,65.04
2017-07-19T09:30:14.815Z,64.07
2017-07-19T09:31:15.399Z,63.87
2017-07-19T09:32:15.982Z,63.29
2017-07-19T09:33:16.566Z,63.20
2017-07-19T09:34:17.149Z,63.59
2017-07-19T09:35:17.731Z,63.97
2017-07-19T09:36:18.320Z,63.68
2017-07-19T09:37:18.898Z,63.87
2017-07-19T09:38:19.484Z,63.52
2017-07-19T09:39:20.066Z,62.93
2017-07-19T09:40:20.651Z,63.52
2017-07-19T09:41:21.243Z,62.96
2017-07-19T09:42:21.821Z,62.32
2017-07-19T09:43:22.406Z,62.02
2017-07-19T09:44:22.989Z,61.44
2017-07-19T09:45:23.593Z,60.95
2017-07-19T09:46:24.181Z,60.56
2017-07-19T09:47:24.775Z,61.44
2017-07-19T09:48:25.360Z,61.63
2017-07-19T09:49:25.944Z,61.34
2017-07-19T09:50:26.529Z,60.85
2017-07-19T09:51:27.112Z,60.85
2017-07-19T09:52:27.695Z,61.24
2017-07-19T09:53:28.280Z,61.15
2017-07-19T09:54:28.863Z,61.24
2017-07-19T09:55:29.447Z,61.76
2017-07-19T09:56:30.031Z,60.59
2017-07-19T09:57:30.618Z,59.88
2017-07-19T09:58:31.201Z,60.75
2017-07-19T09:59:31.784Z,60.49
2017-07-19T10:00:32.376Z,59.69
2017-07-19T10:01:32.953Z,60.39
2017-07-19T10:02:33.539Z,60.10
2017-07-19T10:03:34.124Z,59.42
2017-07-19T10:04:34.720Z,60.44
2017-07-19T10:05:35.305Z,60.78
2017-07-19T10:06:35.889Z,60.33
2017-07-19T10:07:36.474Z,58.77
2017-07-19T10:08:37.059Z,59.74
2017-07-19T10:09:37.643Z,58.87
2017-07-19T10:10:38.229Z,59.06
2017-07-19T10:11:38.813Z,59.94
2017-07-19T10:12:39.396Z,59.28
2017-07-19T10:13:39.979Z,58.58
2017-07-19T10:14:40.590Z,58.87
2017-07-19T10:15:41.148Z,58.54
2017-07-19T10:16:41.734Z,58.91
2017-07-19T10:17:42.332Z,61.08
2017-07-19T10:18:42.918Z,58.97
2017-07-19T10:19:43.501Z,59.77
2017-07-19T10:20:44.086Z,58.40
2017-07-19T10:21:44.682Z,58.12
2017-07-19T10:22:45.267Z,57.34
2017-07-19T10:23:45.852Z,57.73
2017-07-19T10:24:46.436Z,57.26
2017-07-19T10:25:47.032Z,57.43
2017-07-19T10:26:47.617Z,56.87
2017-07-19T10:27:48.201Z,56.68
2017-07-19T10:28:48.784Z,56.48
2017-07-19T10:29:49.372Z,56.68
2017-07-19T10:30:49.967Z,55.32
2017-07-19T10:31:50.543Z,56.48
2017-07-19T10:32:51.127Z,56.87
2017-07-19T10:33:51.722Z,56.48
2017-07-19T10:34:52.308Z,55.87
2017-07-19T10:35:52.892Z,56.52
2017-07-19T10:36:53.476Z,56.46
2017-07-19T10:37:54.063Z,57.07
2017-07-19T10:38:54.651Z,56.77
2017-07-19T10:39:55.236Z,56.00
2017-07-19T10:40:55.822Z,56.61
2017-07-19T10:41:56.407Z,56.54
2017-07-19T10:42:56.992Z,54.95
2017-07-19T10:43:57.574Z,55.73
2017-07-19T10:44:58.161Z,56.51
2017-07-19T10:45:58.746Z,56.74
2017-07-19T10:46:59.332Z,55.47
2017-07-19T10:47:59.931Z,55.20
2017-07-19T10:49:00.529Z,55.79
2017-07-19T10:50:01.115Z,54.71
2017-07-19T10:51:01.700Z,55.91
2017-07-19T10:52:02.284Z,56.20
2017-07-19T10:53:02.872Z,55.81
2017-07-19T10:54:03.463Z,54.93
2017-07-19T10:55:04.061Z,54.74
2017-07-19T10:56:04.647Z,53.76
2017-07-19T10:57:05.232Z,53.76
2017-07-19T10:58:05.818Z,54.05
2017-07-19T10:59:06.404Z,53.86
2017-07-19T11:00:07.009Z,53.56
2017-07-19T11:01:07.577Z,53.78
2017-07-19T11:02:08.175Z,53.86
2017-07-19T11:03:08.763Z,54.69
2017-07-19T11:04:09.352Z,53.76
2017-07-19T11:05:09.939Z,54.57
2017-07-19T11:06:10.527Z,53.08
2017-07-19T11:07:11.112Z,53.86
2017-07-19T11:08:11.698Z,54.35
2017-07-19T11:09:12.285Z,53.78
2017-07-19T11:10:12.872Z,53.00
2017-07-19T11:11:13.460Z,53.62
2017-07-19T11:12:14.047Z,53.23
2017-07-19T11:13:14.633Z,53.00
2017-07-19T11:14:15.222Z,52.91
2017-07-19T11:15:15.809Z,53.88
2017-07-19T11:16:16.397Z,53.74
2017-07-19T11:17:16.984Z,53.88
2017-07-19T11:18:17.574Z,53.59
2017-07-19T11:19:18.161Z,53.78
2017-07-19T11:20:18.748Z,53.33
2017-07-19T11:21:19.347Z,52.93
2017-07-19T11:22:19.938Z,53.23
2017-07-19T11:23:20.522Z,52.76
2017-07-19T11:24:21.110Z,52.76
2017-07-19T11:25:21.696Z,52.17
2017-07-19T11:26:22.284Z,51.88
2017-07-19T11:27:22.872Z,52.40
2017-07-19T11:28:23.458Z,53.47
2017-07-19T11:29:24.045Z,51.71
2017-07-19T11:30:24.634Z,52.03
2017-07-19T11:31:25.223Z,50.73
2017-07-19T11:32:25.808Z,50.73
2017-07-19T11:33:26.398Z,51.39
2017-07-19T11:34:26.984Z,51.78
2017-07-19T11:35:27.574Z,51.61
2017-07-19T11:36:28.161Z,52.08
2017-07-19T11:37:28.747Z,52.17
2017-07-19T11:38:29.337Z,51.49
2017-07-19T11:39:29.924Z,51.78
2017-07-19T11:40:30.510Z,51.90
2017-07-19T11:41:31.096Z,51.81
2017-07-19T11:42:31.684Z,51.71
2017-07-19T11:43:32.282Z,51.12
2017-07-19T11:44:32.871Z,52.40
2017-07-19T11:45:33.460Z,51.22
2017-07-19T11:46:34.058Z,50.37
2017-07-19T11:47:34.649Z,50.46
2017-07-19T11:48:35.236Z,51.25
2017-07-19T11:49:35.830Z,50.66
2017-07-19T11:50:36.413Z,50.04
2017-07-19T11:51:37.011Z,51.90
2017-07-19T11:52:37.600Z,51.71
2017-07-19T11:53:38.198Z,51.88
2017-07-19T11:54:38.785Z,51.73
2017-07-19T11:55:39.373Z,50.73
2017-07-19T11:56:39.963Z,51.32
2017-07-19T11:57:40.549Z,51.93
2017-07-19T11:58:41.138Z,50.88
2017-07-19T11:59:41.723Z,50.98
2017-07-19T12:00:42.311Z,50.95
2017-07-19T12:01:42.901Z,50.68
2017-07-19T12:02:43.489Z,50.17
2017-07-19T12:03:44.077Z,50.39
2017-07-19T12:04:44.666Z,50.59
2017-07-19T12:05:45.254Z,49.31
2017-07-19T12:06:45.841Z,49.90
2017-07-19T12:07:46.442Z,49.87
2017-07-19T12:08:47.029Z,49.97
2017-07-19T12:09:47.616Z,51.27
2017-07-19T12:10:48.202Z,49.33
2017-07-19T12:11:48.791Z,50.09
2017-07-19T12:12:49.384Z,49.92
2017-07-19T12:13:49.991Z,50.37
2017-07-19T12:14:50.568Z,49.68
2017-07-19T12:15:51.158Z,49.90
2017-07-19T12:16:51.744Z,49.99
2017-07-19T12:17:52.332Z,49.63
2017-07-19T12:18:52.922Z,49.80
2017-07-19T12:19:53.509Z,49.43
2017-07-19T12:20:54.100Z,49.24
2017-07-19T12:21:54.686Z,48.67
2017-07-19T12:22:55.276Z,48.45
2017-07-19T12:23:55.865Z,49.14
2017-07-19T12:24:56.452Z,48.85
2017-07-19T12:25:57.039Z,48.77
2017-07-19T12:26:57.625Z,47.89
2017-07-19T12:27:58.214Z,49.08
2017-07-19T12:28:58.805Z,48.60
2017-07-19T12:29:59.391Z,47.69
2017-07-19T12:30:59.979Z,47.69
2017-07-19T12:32:00.567Z,48.08
2017-07-19T12:33:01.157Z,47.89
2017-07-19T12:34:01.747Z,48.30
2017-07-19T12:35:02.349Z,48.08
2017-07-19T12:36:02.936Z,48.77
2017-07-19T12:37:03.524Z,48.01
2017-07-19T12:38:04.111Z,47.99
2017-07-19T12:39:04.700Z,48.28
2017-07-19T12:40:05.293Z,48.08
2017-07-19T12:41:05.882Z,48.77
2017-07-19T12:42:06.466Z,48.08
2017-07-19T12:43:07.056Z,47.69
2017-07-19T12:44:07.650Z,48.21
2017-07-19T12:45:08.234Z,47.94
2017-07-19T12:46:08.819Z,48.55
2017-07-19T12:47:09.407Z,49.07
2017-07-19T12:48:09.997Z,48.57
2017-07-19T12:49:10.586Z,48.08
2017-07-19T12:50:11.176Z,48.57
2017-07-19T12:51:11.765Z,47.79
2017-07-19T12:52:12.356Z,49.07
2017-07-19T12:53:12.945Z,49.04
2017-07-19T12:54:13.533Z,49.92
2017-07-19T12:55:14.122Z,48.45
2017-07-19T12:56:14.712Z,49.04
2017-07-19T12:57:15.301Z,47.86
2017-07-19T12:58:15.890Z,49.04
2017-07-19T12:59:16.490Z,47.57
2017-07-19T13:00:17.078Z,49.16